Station: Ceduna

  Atmospheric Gas Attenuation - ITU Rec 676-11   --------------- db/100km ---------------
Date Time Temp RH % AH g/m3 Dew Point Wind Direction Speed kph Gust kph Barometer mB Rainfall Since 9am 24GHz 47GHz 76GHz 122GHz 134GHz 241GHz
15 01:20 13.8 91 10.84 12.4 20 26 1020.5 1.2 24.4 30.0 49.5 130.3 129.9 448.7
15 01:10 13.7 94 11.13 12.8 13 22 1020.7 1.2 25.0 30.5 50.9 133.9 134.3 464.0
15 01:00 13.4 96 11.16 12.8 7 9 1020.7 1.2 25.1 30.7 51.2 134.8 135.3 467.3
15 00:50 13.3 96 11.09 12.7 9 11 1020.7 1.2 24.9 30.6 51.0 134.2 134.5 464.4
15 00:40 13.2 95 10.91 12.4 9 11 1020.6 1.2 24.6 30.3 50.2 132.2 132.0 455.8
15 00:30 13.6 94 11.06 12.7 9 13 1020.5 1.2 24.9 30.4 50.6 133.3 133.5 461.0
15 00:20 13.9 95 11.39 13.1 9 11 1020.5 1.2 25.6 30.9 51.9 136.6 137.7 475.9
15 00:10 14.2 96 11.72 13.6 13 19 1020.5 1.2 26.2 31.4 53.2 140.0 142.0 490.9
15 00:00 14.3 96 11.79 13.7 15 19 1020.6 1.2 26.4 31.5 53.4 140.7 142.9 493.9
14 23:50 14.3 94 11.55 13.3 7 17 1020.8 1.2 25.9 31.1 52.4 137.9 139.4 481.7
14 23:40 14.1 93 11.29 13 7 9 1020.7 1.2 25.3 30.7 51.3 135.1 135.9 469.7
14 23:30 14.1 92 11.17 12.8 9 11 1020.7 1.2 25.1 30.4 50.8 133.7 134.2 463.6
14 23:20 14.2 92 11.23 12.9 9 11 1020.8 1.2 25.2 30.5 51.0 134.3 134.9 466.1
14 23:10 14.3 90 11.06 12.7 11 17 1020.9 1.2 24.8 30.2 50.2 132.1 132.3 456.9
14 23:00 14.4 92 11.37 13.1 13 17 1021 1.2 25.5 30.7 51.5 135.6 136.6 472.0
14 22:50 14.2 92 11.23 12.9 13 17 1020.8 1.2 25.2 30.5 51.0 134.3 134.9 466.1
14 22:40 14 96 11.58 13.4 9 13 1020.6 1.2 26.0 31.2 52.7 138.7 140.3 485.0
14 22:30 14 96 11.58 13.4 11 13 1020.7 1.2 26.0 31.2 52.7 138.7 140.4 485.1
14 22:20 13.9 96 11.51 13.3 9 11 1020.7 1.2 25.8 31.1 52.4 138.1 139.5 482.1
14 22:10 14 96 11.58 13.4 11 13 1020.6 1.2 26.0 31.2 52.7 138.7 140.3 485.0
14 22:00 14 96 11.58 13.4 13 15 1020.6 1.2 26.0 31.2 52.7 138.7 140.3 485.0
14 21:50 14 96 11.58 13.4 11 17 1020.6 1.2 26.0 31.2 52.7 138.7 140.3 485.0
14 21:40 13.9 96 11.51 13.3 11 13 1020.6 1.2 25.8 31.1 52.4 138.1 139.5 482.1
14 21:30 13.8 96 11.44 13.2 11 15 1020.6 1.2 25.7 31.0 52.2 137.4 138.7 479.1
14 21:20 14.1 96 11.65 13.5 11 15 1020.6 1.2 26.1 31.3 52.9 139.4 141.2 488.0
14 21:10 14.1 97 11.77 13.6 11 17 1020.6 1 26.4 31.5 53.5 140.8 143.0 494.2
14 21:00 14.1 96 11.65 13.5 15 19 1020.7 0.2 26.1 31.3 52.9 139.4 141.2 488.0
14 20:50 13.9 95 11.39 13.1 13 17 1020.5 0 25.6 30.9 51.9 136.6 137.7 475.9
14 20:40 13.7 96 11.37 13.1 13 15 1020.4 0 25.5 30.9 51.9 136.7 137.8 476.1
14 20:30 13.4 95 11.04 12.6 13 17 1020.3 0 24.8 30.4 50.7 133.3 133.5 461.1
14 20:20 13.5 95 11.11 12.7 13 17 1020.3 0 25.0 30.5 50.9 134.0 134.4 464.0
14 20:10 13.6 94 11.06 12.7 15 19 1020.1 0 24.9 30.4 50.6 133.2 133.4 460.8
14 19:59 13.8 94 11.2 12.9 15 17 1020 0 25.2 30.6 51.1 134.5 135.1 466.7
14 11:30 17.7 76 11.47 13.4 22 30 1019.1 0 25.5 29.7 49.7 130.8 132.0 456.4
14 11:27 17.7 76 11.47 13.4 22 28 1019.1 0 25.5 29.7 49.7 130.8 132.0 456.4
14 11:20 17.3 80 11.78 13.8 22 30 1019.1 0 26.2 30.3 51.3 135.0 137.0 474.0
14 11:10 17.6 78 11.7 13.7 24 32 1019.1 0 26.0 30.1 50.7 133.6 135.4 468.2
14 11:00 17.3 80 11.78 13.8 22 33 1019 0 26.2 30.3 51.3 135.0 137.0 473.9
14 10:50 16.9 80 11.51 13.4 24 32 1018.9 0 25.6 30.0 50.4 132.6 133.9 463.1
14 10:40 17.1 81 11.79 13.8 22 30 1018.9 0 26.2 30.4 51.4 135.5 137.5 475.6
14 10:30 16.8 82 11.72 13.7 20 32 1019.1 0 26.1 30.4 51.3 135.2 137.1 474.1
14 10:20 16.8 85 12.15 14.3 22 30 1019 0 27.0 31.1 53.2 140.2 143.2 495.4
14 10:10 16.4 87 12.14 14.2 20 28 1018.8 0 27.0 31.3 53.4 140.8 143.8 497.4
14 10:00 16 89 12.13 14.2 22 28 1018.8 0 27.0 31.4 53.7 141.4 144.4 499.5
14 09:50 15.6 88 11.7 13.6 20 26 1018.7 0 26.1 30.8 52.0 137.0 138.9 480.4
14 09:40 15.4 89 11.69 13.6 22 30 1018.5 0 26.1 30.8 52.1 137.3 139.1 481.0
14 09:30 15.4 91 11.96 13.9 20 30 1018.5 0 26.7 31.3 53.3 140.4 143.0 494.7
14 09:20 15.1 92 11.87 13.8 20 28 1018.4 0 26.5 31.2 53.1 139.9 142.3 492.0
14 09:10 14.9 93 11.85 13.8 19 26 1018.3 0 26.5 31.3 53.2 140.0 142.4 492.2
14 09:00 14.6 93 11.64 13.5 20 28 1018.3 0 26.1 31.0 52.4 138.1 139.9 483.5
14 08:50 14.2 94 11.48 13.2 17 24 1018.2 1 25.7 30.9 52.0 136.9 138.3 477.8
14 08:40 13.9 94 11.27 13 17 24 1018.1 1 25.3 30.6 51.2 134.9 135.7 469.0
14 08:30 13.7 95 11.25 12.9 17 22 1018 1 25.3 30.6 51.3 135.0 135.8 469.1
14 08:20 13.6 96 11.3 13 17 22 1018 1 25.4 30.7 51.6 135.8 136.7 472.3
14 08:10 13.4 96 11.16 12.8 17 24 1017.9 1 25.1 30.6 51.1 134.5 135.0 466.3
14 08:00 13.2 96 11.02 12.6 15 20 1017.8 1 24.8 30.4 50.6 133.1 133.3 460.4
14 07:50 13.2 96 11.02 12.6 17 22 1017.7 1 24.8 30.4 50.6 133.1 133.3 460.4
14 07:40 13.1 96 10.96 12.5 15 20 1017.7 1 24.7 30.3 50.4 132.6 132.6 457.9
14 07:30 13.2 96 11.02 12.6 15 20 1017.6 1 24.8 30.4 50.6 133.1 133.3 460.3
14 07:20 13.1 96 10.96 12.5 15 20 1017.5 1 24.7 30.3 50.4 132.6 132.6 457.8
14 07:10 13.2 96 11.02 12.6 17 24 1017.4 1 24.8 30.4 50.6 133.1 133.3 460.3
14 07:00 13.1 96 10.96 12.5 17 22 1017.3 1 24.7 30.3 50.4 132.5 132.6 457.8
14 06:50 13.1 95 10.84 12.3 17 24 1017.2 1 24.4 30.1 49.8 131.1 130.8 451.7
14 06:40 13.3 95 10.98 12.5 19 26 1017.1 1 24.7 30.2 50.3 132.4 132.5 457.5
14 06:30 13.4 96 11.16 12.8 19 24 1017.1 1 25.1 30.5 51.0 134.4 134.9 466.1
14 06:20 13.4 96 11.16 12.8 19 24 1017.1 1 25.1 30.5 51.0 134.4 134.9 466.1
14 06:10 13.4 96 11.16 12.8 19 26 1017.1 1 25.1 30.5 51.0 134.4 134.9 466.1
14 06:00 13.2 97 11.14 12.7 19 26 1017.1 1 25.1 30.6 51.1 134.5 135.0 466.3
14 05:50 12.9 97 10.93 12.4 17 22 1017.1 1 24.6 30.3 50.3 132.5 132.5 457.4
14 05:40 12.6 97 10.73 12.1 17 22 1017 1 24.2 30.0 49.6 130.7 130.1 449.0
14 05:30 12.4 97 10.6 11.9 17 20 1017 1 24.0 29.9 49.2 129.5 128.5 443.5
14 05:20 12.5 97 10.67 12 17 22 1017 1 24.1 30.0 49.4 130.1 129.4 446.5
14 05:10 12.3 96 10.43 11.7 17 20 1016.9 1 23.6 29.6 48.5 127.6 126.2 435.5
14 05:00 12.6 96 10.62 12 15 20 1016.8 1 24.0 29.8 49.1 129.3 128.4 443.3
14 04:50 13.1 96 10.96 12.5 17 22 1016.7 1 24.7 30.3 50.3 132.5 132.5 457.6
14 04:40 13.3 96 11.09 12.7 19 26 1016.6 1 25.0 30.4 50.8 133.7 134.0 462.9
14 04:30 13.4 96 11.16 12.8 20 26 1016.7 1 25.1 30.5 51.0 134.3 134.9 465.9
14 04:20 13.5 95 11.11 12.7 20 26 1016.7 1 25.0 30.4 50.7 133.6 134.0 462.8
14 04:10 13.6 95 11.18 12.8 20 26 1016.7 1 25.1 30.5 51.0 134.2 134.8 465.7
14 04:00 13.6 95 11.18 12.8 20 28 1016.7 1 25.1 30.5 51.0 134.2 134.8 465.7
14 03:50 13.8 95 11.32 13 22 32 1016.8 1 25.4 30.7 51.5 135.5 136.5 471.6
14 03:40 13.8 95 11.32 13 22 32 1017 1 25.4 30.7 51.5 135.5 136.5 471.7
14 03:30 13.8 94 11.2 12.9 24 32 1017.2 1 25.2 30.5 51.0 134.2 134.8 465.7
14 03:20 13.8 94 11.2 12.9 24 35 1017.3 1 25.2 30.5 51.0 134.2 134.8 465.7
14 03:10 13.8 95 11.32 13 24 32 1017.3 1 25.4 30.7 51.5 135.6 136.6 471.8
14 03:00 13.6 95 11.18 12.8 22 30 1017.2 1 25.1 30.5 51.0 134.3 134.9 465.9
14 02:50 13.4 95 11.04 12.6 22 30 1017.2 1 24.8 30.3 50.5 133.0 133.2 460.0
14 02:40 13.5 95 11.11 12.7 19 28 1017.3 1 25.0 30.4 50.8 133.6 134.0 463.0
14 02:30 13.8 94 11.2 12.9 20 26 1017.1 1 25.2 30.5 50.9 134.1 134.8 465.7
14 02:20 13.9 94 11.27 13 20 26 1016.8 1 25.3 30.5 51.2 134.8 135.6 468.5
14 02:10 14.1 93 11.29 13 20 28 1016.8 1 25.3 30.5 51.1 134.6 135.5 468.3
14 02:00 14.1 94 11.41 13.1 22 30 1016.9 1 25.6 30.7 51.7 136.1 137.3 474.4
14 01:50 13.9 94 11.27 13 22 30 1016.9 1 25.3 30.5 51.2 134.8 135.6 468.5
14 01:40 13.6 94 11.06 12.7 22 30 1016.7 1 24.9 30.3 50.4 132.8 133.1 459.6
14 01:30 13.7 95 11.25 12.9 19 26 1016.7 1 25.3 30.6 51.2 134.9 135.7 468.7
14 01:20 13.5 94 11 12.6 19 24 1016.8 1 24.8 30.2 50.2 132.3 132.4 457.2
14 01:10 13.5 94 11 12.6 22 30 1016.7 1 24.8 30.2 50.2 132.3 132.4 457.2
14 01:00 13.4 94 10.93 12.5 22 28 1016.8 1 24.6 30.1 50.0 131.6 131.6 454.3
14 00:50 13.3 94 10.86 12.4 20 26 1016.9 1 24.5 30.0 49.8 131.0 130.7 451.4
14 00:40 13.2 94 10.79 12.3 20 28 1016.9 1 24.3 29.9 49.5 130.3 129.9 448.4

Last Refresh: 15-Jun-2024 01:27:52

Bureau of Meteorology